METAR stanice u blizini

 

LYBE - Beograd / Surčin, Srbija
Ažurirano: 18/10/2018 12:00
Vedro
Vedro
 Pravac vetra IJI
Vetar: IJI 19 km/h
Temperatura: 23°C
Tačka rose: 10°C
Vlažnost: 44%
Pritisak: 1018 hPa
Pregled: Vedro
Vidljivost: greater than 10 km
2018/10/18 10:00 LYBE 181000Z 11010KT CAVOK 23/10 Q1018 NOSIG
LYBT - Beograd / Batajnica, Srbija
Ažurirano: 18/10/2018 12:00
Vedro
Vedro
 Pravac vetra I
Vetar: I 15 km/h
Temperatura: 22°C
Tačka rose: 9°C
Vlažnost: 44%
Pritisak: 1018 hPa
Pregled: Vedro
Vidljivost: greater than 10 km
2018/10/18 10:00 LYBT 181000Z 10008KT 050V120 CAVOK 22/09 Q1018 NOSIG
LYVR - Vršac, Srbija
Ažurirano: 18/10/2018 12:00
Vedro
Vedro
 Pravac vetra varies
Vetar: varies 4 km/h
Temperatura: 23°C
Tačka rose: 9°C
Vlažnost: 41%
Pritisak: 1018 hPa
Pregled: Vedro
Vidljivost: greater than 10 km
2018/10/18 10:00 LYVR 181000Z VRB02KT CAVOK 23/09 Q1018 NOSIG
 
LYKV - Lađevci, Srbija
Ažurirano: 18/10/2018 12:00
Vedro
Vedro
 Pravac vetra varies
Vetar: varies 4 km/h
Temperatura: 17°C
Tačka rose: 8°C
Vlažnost: 56%
Pritisak: 1018 hPa
Pregled: Vedro
Vidljivost: greater than 10 km
2018/10/18 10:00 LYKV 181000Z VRB02KT CAVOK 17/08 Q1018 NOSIG
LYNI - Niš, Srbija
Ažurirano: 18/10/2018 12:00
Vedro
Vedro
 Pravac vetra varies
Vetar: varies 6 km/h
Temperatura: 21°C
Tačka rose: 8°C
Vlažnost: 43%
Pritisak: 1018 hPa
Pregled: Vedro
Vidljivost: greater than 10 km
2018/10/18 10:00 LYNI 181000Z VRB03KT CAVOK 21/08 Q1018 NOSIG
BKPR - Priština, Srbija
Ažurirano: 18/10/2018 12:30
Vedro
Vedro
 Pravac vetra varies
Vetar: varies 4 km/h
Temperatura: 19°C
Tačka rose: 5°C
Vlažnost: 40%
Pritisak: 1018 hPa
Pregled: Vedro
Vidljivost: greater than 10 km
2018/10/18 10:30 BKPR 181030Z VRB02KT CAVOK 19/05 Q1018 NOSIG
 
LHPP - Pecs / Pogany, Hungary
Ažurirano: 18/10/2018 11:45
Vedro
Vedro
 Pravac vetra IJI
Vetar: IJI 7 km/h
Temperatura: 17°C
Tačka rose: 8°C
Vlažnost: 56%
Pritisak: 1019 hPa
Pregled: Vedro
Vidljivost: greater than 10 km
2018/10/18 09:45 LHPP 180945Z 11004KT CAVOK 17/08 Q1019
LHUD - Szeged, Hungary
Ažurirano: 18/10/2018 11:45
Vedro
Vedro
 Pravac vetra SSI
Vetar: SSI 6 km/h
Temperatura: 18°C
Tačka rose: 7°C
Vlažnost: 49%
Pritisak: 1019 hPa
Pregled: Vedro
Vidljivost: greater than 10 km
2018/10/18 09:45 LHUD 180945Z 02003KT CAVOK 18/07 Q1019
LRTR - Timisoara, Romania
Ažurirano: 18/10/2018 12:00
Vedro
Vedro
 Pravac vetra I
Vetar: I 6 km/h
Temperatura: 23°C
Tačka rose: 8°C
Vlažnost: 38%
Pritisak: 1018 hPa
Pregled: Vedro
Vidljivost: greater than 10 km
2018/10/18 10:00 LRTR 181000Z 08003KT 020V150 CAVOK 23/08 Q1018 NOSIG
 
LRCV - Craiova, Romania
Ažurirano: 18/10/2018 12:00
Vedro
Vedro
 Pravac vetra ISI
Vetar: ISI 24 km/h
Temperatura: 20°C
Tačka rose: 10°C
Vlažnost: 53%
Pritisak: 1019 hPa
Pregled: Vedro
Vidljivost: greater than 10 km
2018/10/18 10:00 LRCV 181000Z 07013KT CAVOK 20/10 Q1019
LBSF - Sofia, Bulgaria
Ažurirano: 18/10/2018 12:00
Vedro
Vedro
 Pravac vetra varies
Vetar: varies 4 km/h
Temperatura: 20°C
Tačka rose: 6°C
Vlažnost: 40%
Pritisak: 1018 hPa
Pregled: Vedro
Vidljivost: greater than 10 km
2018/10/18 10:00 LBSF 181000Z VRB02KT CAVOK 20/06 Q1018 NOSIG
LWSK - Skoplje, Makedonija
Ažurirano: 18/10/2018 12:30
Vedro
Vedro
 Pravac vetra varies
Vetar: varies 2 km/h
Temperatura: 20°C
Tačka rose: 7°C
Vlažnost: 43%
Pritisak: 1017 hPa
Pregled: Vedro
Vidljivost: greater than 10 km
2018/10/18 10:30 LWSK 181030Z VRB01KT CAVOK 20/07 Q1017 NOSIG
 
LYPG - Podgorica, Crna Gora
Ažurirano: 18/10/2018 12:00
Vedro
Vedro
 Pravac vetra varies
Vetar: varies 2 km/h
Temperatura: 25°C
Tačka rose: 7°C
Vlažnost: 32%
Pritisak: 1015 hPa
Pregled: Vedro
Vidljivost: greater than 10 km
2018/10/18 10:00 LYPG 181000Z VRB01KT CAVOK 25/07 Q1015 NOSIG
LQSA - Sarajevo, Bosna i Hercegovina
Ažurirano: 18/10/2018 12:00
Vedro
Vedro
 Pravac vetra varies
Vetar: varies 2 km/h
Temperatura: 16°C
Tačka rose: 7°C
Vlažnost: 55%
Pritisak: 1018 hPa
Pregled: Vedro
Vidljivost: greater than 10 km
2018/10/18 10:00 LQSA 181000Z VRB01KT CAVOK 16/07 Q1018 NOSIG
LDOS - Osijek, Hrvatksa
Ažurirano: 18/10/2018 12:00
Vedro
Vedro
 Pravac vetra IJI
Vetar: IJI 7 km/h
Temperatura: 19°C
Tačka rose: 8°C
Vlažnost: 49%
Pritisak: 1018 hPa
Pregled: Vedro
Vidljivost: greater than 10 km
2018/10/18 10:00 LDOS 181000Z 11004KT 070V150 CAVOK 19/08 Q1018